LGEL

Details ICAO LGEL
Name ELEFSIS
Region Greece
Timezone Europe/Athens (UTC+3.0)
Plans Departing 76
Arriving 41
Stats Elevation 143 ft / 44 m (AMSL)
Location 38.063900° 23.556000°
Runways 1
Magnetic Variation 4.532° E
Sunrise 2018-10-23 04:43:05 UTC / 2018-10-23 07:43:05 Local
Sunset 2018-10-23 15:39:29 UTC / 2018-10-23 18:39:29 Local
Advertisement - Login to hide

Runways

ID Width Length Bearing (true/mag) Surface Threshold Overrun Markings Lighting
18 131 ft / 40 m 8,940 ft / 2,725 m 179.85° / 175.31° ASPHALT 0 ft / 0 m 830 ft / 253 m APP EDGE THRESHOLD SALS
36 131 ft / 40 m 8,940 ft / 2,725 m 359.85° / 355.31° ASPHALT 198 ft / 60 m 150 ft / 46 m APP EDGE THRESHOLD MALS

Map

Weather


0- 5 10 15 20 25 30 35+ Temperature / °C

Clouds and Precipitation
Forecast for 2018-10-23 06:00 UTC. Updated an hour ago

Ground ~20,000 ft ~40,000 ft Winds

METAR

LGEL 230420Z VRB01KT 8000 SCT025 BKN070 16/14 Q1014

TAF

TAF LGEL 222300Z 2300/2324 VRB05KT 8000 SCT025 BKN070 PROB40 TEMPO 2306/2312 5000 RA SCT015 BKN020 BKN070 PROB30 TEMPO 2309/2316 4000 TSRA SCT012 FEW018CB BKN020 OVC070 BECMG 2313/2315 01010KT

Frequencies

Tower 120.15 MHz
Approach 129.55 MHz ATHINAI APP
Approach 119.10 MHz ATHINAI APP
Tower 122.10 MHz
Warning: Do not use this data for real-world aviation or navigation. No guarantee of current accuracy is given.